Station: Batemans Bay  

  Atmospheric Gas Attenuation - ITU Rec 676-11   ----------------- dB/100km -----------------
Date Time Temp RH % AH g/m3 Dew Point Wind Direction Speed kph Gust kph Barometer mB Rainfall Since 9am 24GHz 47GHz 76GHz 122GHz 134GHz 241GHz
02/09 09:00 22 57 11.06 13.3 7 1013.1 0 24.4 27.4 45.2 118.9 119.0 411.5
31/08 09:00 12.2 100 10.79 12.2 0 1013.1 0 24.4 30.1 50.0 131.6 131.2 453.0
27/08 09:00 11.5 94 9.71 10.5 0 1013.1 0 22.1 28.5 45.7 120.1 116.8 402.6
26/08 09:00 15.1 89 11.48 13.3 0 1013.1 2 25.7 30.3 51.1 134.7 136.1 470.4
25/08 09:00 13.8 100 11.92 13.8 4 1013.1 0 26.7 31.6 54.0 142.2 144.9 501.0
24/08 09:00 16.4 75 10.47 12 4 1013.1 0 23.4 28.2 46.0 121.1 119.8 413.7
20/08 09:00 16.2 90 12.41 14.5 0 1013.1 0 27.6 31.6 54.5 143.6 147.5 510.2
19/08 09:00 19 62 10.1 11.7 0 1013.1 22.5 26.8 43.0 113.2 111.0 383.3
18/08 09:00 16.6 71 10.03 11.4 6 1013.1 10 22.5 27.4 44.1 115.9 113.6 391.9
13/08 09:00 12.5 70 7.7 7.3 0 1013.1 0 17.7 24.8 36.8 96.5 88.2 302.4
12/08 09:00 8 100 8.27 8 0 1013.1 0 19.2 27.1 41.4 108.7 101.4 348.2
11/08 09:00 16.5 60 8.42 8.7 0 1013.1 0 19.1 24.8 37.8 99.1 92.8 319.1
10/08 09:00 13.5 100 11.7 13.5 37 1013.1 3 26.3 31.3 53.2 140.1 142.2 491.6
07/08 09:00 9.4 75 6.79 5.2 0 1013.1 0 15.9 24.2 34.6 90.6 79.6 272.1
06/08 09:00 8.5 100 8.54 8.5 0 1013.1 0.6 19.7 27.4 42.3 111.1 104.6 359.3
05/08 09:00 7.5 93 7.45 6.4 0 1013.1 0 17.4 25.8 38.2 100.1 90.6 310.3
03/08 09:00 12.5 100 11 12.5 0 1013.1 0 24.8 30.4 50.7 133.5 133.8 461.9
31/07 09:00 9.5 100 9.1 9.5 0 1013.1 0 20.9 28.0 44.2 116.1 111.1 382.4
28/07 09:00 14 62 7.48 6.8 9 1013.1 0 17.2 24.1 35.3 92.5 83.7 287.0
27/07 09:00 6.5 100 7.5 6.5 0 1013.1 0 17.6 26.2 38.9 101.9 92.5 316.7
25/07 09:00 11.5 100 10.33 11.5 4 1013.1 0 23.4 29.5 48.4 127.3 125.7 433.7
23/07 09:00 11.3 100 10.2 11.3 0 1013.1 0 23.2 29.4 47.9 126.1 124.2 428.2
22/07 09:00 8.3 100 8.43 8.3 0 1013.1 0 19.5 27.3 41.9 110.1 103.3 354.8
21/07 09:00 6.5 97 7.28 6.1 0 1013.1 0 17.1 25.8 38.0 99.5 89.4 306.0
09/07 09:00 11.3 100 10.2 11.3 0 1013.1 7 23.2 29.4 47.9 126.1 124.2 428.2
02/07 09:00 17 79 11.43 13.4 11 1013.1 2 25.5 29.6 49.7 130.8 132.0 456.5
30/06 09:00 11 100 10.01 11 0 1013.1 0 22.8 29.1 47.3 124.4 121.9 420.3
29/06 09:00 11.1 100 10.07 11.1 0 1013.1 14 22.9 29.2 47.5 124.9 122.6 422.7
26/06 09:00 11.5 87 8.99 9.5 0 1013.1 0 20.5 27.2 42.6 111.9 106.7 367.3
24/06 09:00 6.5 100 7.5 6.5 0 1013.1 0 17.6 26.2 38.9 101.9 92.5 316.7
23/06 09:00 7.7 100 8.11 7.7 0 1013.1 0 18.8 26.9 40.9 107.3 99.5 341.7
22/06 09:00 11.5 82 8.47 8.5 0 1013.1 0 19.4 26.4 40.4 106.1 99.6 342.4
20/06 09:00 13.5 100 11.7 13.5 0 1013.1 0 26.3 31.3 53.2 140.1 142.2 491.6
16/06 09:00 11.5 100 10.33 11.5 0 1013.1 0 23.4 29.5 48.4 127.3 125.7 433.7
12/06 09:00 13.5 100 11.7 13.5 0 1013.1 11 26.3 31.3 53.2 140.1 142.2 491.6
11/06 09:00 19 80 13.04 15.6 7 1013.1 2 28.8 31.7 55.2 145.7 151.0 523.0
08/06 09:00 8 100 8.27 8 0 1013.1 0 19.2 27.1 41.4 108.7 101.4 348.2
03/06 09:00 18.5 64 10.13 11.6 11 1013.1 0 22.6 27.0 43.4 114.2 112.1 387.1
02/06 09:00 14.7 69 8.69 9.2 15 1013.1 0 19.7 25.8 39.7 104.2 98.4 338.7
01/06 09:00 8.8 100 8.71 8.8 0 1013.1 0 20.1 27.6 42.9 112.6 106.6 366.4
31/05 09:00 14.3 69 8.48 8.8 4 1013.1 0 19.3 25.6 39.1 102.5 96.2 330.8
30/05 09:00 13.4 69 8.02 7.9 4 1013.1 0 18.4 25.1 37.7 98.8 91.3 313.5
26/05 09:00 15 100 12.82 15 11 1013.1 9 28.6 32.8 57.2 150.8 155.9 539.6
22/05 09:00 13.5 82 9.59 10.6 0 1013.1 0 21.7 27.6 44.0 115.7 112.1 386.5
21/05 09:00 11.3 96 9.79 10.7 0 1013.1 0 22.3 28.7 46.1 121.3 118.3 407.6
19/05 09:00 16 96 13.08 15.3 4 1013.1 4 29.1 32.9 57.6 152.0 157.7 546.0
18/05 09:00 15.7 100 13.38 15.7 4 1013.1 0.6 29.7 33.5 59.2 156.3 162.9 563.9
13/05 09:00 16.3 86 11.93 14 7 1013.1 1 26.6 30.7 52.3 137.8 140.3 485.4
12/05 09:00 13.2 100 11.48 13.2 0 1013.1 0.1 25.8 31.0 52.4 138.0 139.5 482.2
11/05 09:00 16 89 12.13 14.2 0 1013.1 1 27.0 31.2 53.4 140.7 143.8 497.4
10/05 09:00 10.5 100 9.7 10.5 0 1013.1 0 22.1 28.8 46.2 121.5 118.2 407.3
06/05 09:00 16.5 74 10.39 11.9 0 1013.1 0 23.3 28.0 45.6 120.0 118.6 409.4
05/05 09:00 17.2 68 9.96 11.3 0 1013.1 3 22.3 27.1 43.5 114.3 111.8 385.7
04/05 09:00 18 96 14.74 17.3 0 1013.1 0.2 32.5 35.1 63.7 168.1 178.3 617.8
01/05 09:00 1013.1
22/04 09:00 18.2 78 12.12 14.4 0 1013.1 3 26.9 30.4 51.8 136.6 139.5 482.9
21/04 09:00 16.5 75 10.53 12.1 0 1013.1 0 23.6 28.2 46.2 121.6 120.5 416.0
20/04 09:00 13.1 100 11.41 13.1 0 1013.1 0 25.7 30.9 52.1 137.4 138.7 479.2
19/04 09:00 14 70 8.44 8.6 4 1013.1 0 19.2 25.6 39.1 102.5 96.0 330.2
18/04 09:00 10 100 9.4 10 4 1013.1 18 21.5 28.4 45.2 118.8 114.7 394.9
14/04 09:00 16.5 69 9.69 10.9 0 1013.1 0 21.8 26.9 42.8 112.4 109.2 376.6
13/04 09:00 18 53 8.14 8.3 15 1013.1 0 18.4 24.0 36.0 94.4 87.6 301.0
10/04 09:00 23.5 65 13.75 16.5 33 1013.1 1 30.0 31.3 55.1 145.3 152.0 527.1
09/04 09:00 22 65 12.61 15.3 0 1013.1 0 27.7 29.9 51.4 135.4 139.4 482.8
01/04 09:00 16 100 13.62 16 0 1013.1 0 30.2 33.9 60.1 158.6 165.8 574.3
31/03 09:00 14.5 100 12.44 14.5 0 1013.1 0 27.8 32.3 55.8 147.2 151.3 523.3
30/03 09:00 15.6 93 12.37 14.5 0 1013.1 0 27.6 31.7 54.7 144.2 148.0 512.2
28/03 09:00 18.7 56 8.96 9.9 11 1013.1 32 20.1 25.1 38.8 101.8 96.9 333.8
27/03 09:00 14 72 8.68 9.1 26 1013.1 16 19.8 26.0 40.0 105.0 99.2 341.3
26/03 09:00 20.5 89 15.83 18.6 0 1013.1 0.4 34.6 36.1 66.6 175.9 188.7 654.5
25/03 09:00 20.5 86 15.3 18.1 0 1013.1 0 33.5 35.1 64.2 169.5 180.7 626.7
23/03 09:00 20.2 89 15.56 18.3 0 1013.1 0 34.1 35.7 65.6 173.3 185.3 642.8
21/03 09:00 20.6 100 17.9 20.6 4 1013.1 0 39.1 40.0 76.4 202.0 220.7 765.8
16/03 09:00 17.7 83 12.52 14.8 0 1013.1 0 27.8 31.2 53.9 142.1 146.1 505.8
12/03 09:00 20.5 68 12.1 14.5 22 1013.1 0 26.7 29.5 50.2 132.4 135.1 467.8
11/03 09:00 20.5 97 17.26 20 0 1013.1 0 37.7 38.8 73.4 193.9 210.8 731.4
05/03 09:00 24.6 68 15.3 18.4 0 1013.1 4 33.2 33.5 60.8 160.7 171.2 594.1
04/03 09:00 23.4 88 18.5 21.3 2 1013.1 20 40.1 39.8 76.4 202.2 221.8 770.1
16/02 09:00 22.5 76 15.18 18.2 4 1013.1 5 33.1 34.1 62.0 163.7 174.2 604.5
12/02 09:00 18 95 14.59 17.2 19 1013.1 8 32.2 34.9 63.0 166.3 176.0 609.9
11/02 09:00 22.2 81 15.9 18.9 4 1013.1 0.4 34.6 35.5 65.4 172.9 185.5 643.6
09/02 09:00 21.5 91 17.16 19.9 0 1013.1 9 37.4 38.2 71.9 190.1 206.4 716.3
05/02 09:00 22.5 75 14.98 18 0 1013.1 0 32.6 33.8 61.1 161.3 171.4 594.4
04/02 09:00 20 79 13.65 16.3 0 1013.1 0 30.0 32.4 57.2 150.9 157.7 546.5
02/02 09:00 16.4 56 7.82 7.6 19 1013.1 3 17.8 23.9 35.5 93.1 85.4 293.2
30/01 09:00 22.3 91 17.97 20.8 0 1013.1 3 39.0 39.4 75.0 198.3 216.7 752.4
28/01 09:00 22.4 75 14.89 17.7 0 1013.1 0 32.5 33.6 60.8 160.5 170.3 590.7
27/01 09:00 20.5 81 14.41 17.2 0 1013.1 0 31.6 33.5 60.1 158.8 167.6 581.0
26/01 09:00 22 64 12.42 14.9 15 1013.1 0 27.3 29.6 50.6 133.4 136.8 473.9
24/01 09:00 21.7 68 12.97 15.5 1013.1 0 28.4 30.6 53.1 139.9 144.8 501.8
23/01 09:00 18.3 62 9.69 10.9 0 1013.1 0 21.7 26.3 41.8 109.9 106.7 368.1
22/01 09:00 19.7 68 11.55 13.8 26 1013.1 0 25.6 28.9 48.5 127.7 129.1 446.6
21/01 09:00 20.5 72 12.81 15.3 0 1013.1 0 28.2 30.7 53.2 140.3 144.9 501.8
20/01 09:00 18.4 93 14.63 17.2 4 1013.1 2 32.2 34.8 62.8 165.9 175.6 608.8
16/01 09:00 20.6 90 16.11 19 15 1013.1 16 35.2 36.6 67.8 179.2 192.7 668.4
15/01 09:00 19.5 95 15.94 18.7 0 1013.1 16 35.0 36.8 68.0 179.7 192.9 669.1
14/01 09:00 25.5 83 19.65 22.5 4 1013.1 0 42.3 41.0 79.8 211.0 233.3 810.5
13/01 09:00 22.9 77 15.74 18.8 4 1013.1 0 34.2 34.9 64.1 169.4 181.4 629.6
04/01 09:00 26.2 57 14.03 17 0 1013.1 4 30.4 30.8 54.3 143.4 150.5 522.1
03/01 09:00 21.2 75 13.9 16.6 7 1013.1 0 30.4 32.4 57.4 151.4 158.8 550.4

Last Refresh: 02-Sep-2026 19:13:05

Bureau of Meteorology